Posen, Michigan
Current Conditions -  °F | °C
As of 9:54 AM on Monday 22 Dec 2014 (Local Time) from KPZQ Reporting Station
Broken Clouds Broken Clouds  
Wind Chill: 22°   Ceiling: 5000
Heat Index: 31°   Visibility: 7mi
Dew Point: 27°   Wind: 10mph
Humidity: 87%   Direction: 180°S
Pressure: 30.1"   Gusts: 16mph
Location:  45.26°N, 83.7°W
Report Text: KPZQ 221454Z AUTO 18009G14KT 7SM BKN050 M01/M03 A3010 RMK AO2 T10081027
Loading
Personal Weather Stations






























Interactive Weather Map New forecast layout! Learn more

10-Day Weather Forecast

Advertisements
Track Severe Weather on mobile